TimeMST,TemperatureF,Dew PointF,Humidity,Sea Level PressureIn,VisibilityMPH,Wind Direction,Wind SpeedMPH,Gust SpeedMPH,PrecipitationIn,Events,Conditions,WindDirDegrees,DateUTC
12:53 AM,28.9,12.0,49,29.96,10.0,Calm,Calm,-,N/A,,Clear,0,2012-12-06 07:53:00
1:53 AM,28.0,10.9,49,29.94,10.0,ENE,3.5,-,N/A,,Clear,60,2012-12-06 08:53:00
2:53 AM,25.0,10.0,53,29.97,10.0,Calm,Calm,-,N/A,,Clear,0,2012-12-06 09:53:00
3:53 AM,24.1,10.0,55,29.95,10.0,Calm,Calm,-,N/A,,Clear,0,2012-12-06 10:53:00
4:53 AM,25.0,10.9,55,29.97,10.0,East,3.5,-,N/A,,Clear,90,2012-12-06 11:53:00
5:53 AM,19.9,8.1,60,30.05,10.0,East,3.5,-,N/A,,Clear,80,2012-12-06 12:53:00
6:53 AM,23.0,10.9,60,30.05,10.0,NE,4.6,-,N/A,,Clear,40,2012-12-06 13:53:00
7:53 AM,21.0,7.0,55,30.14,10.0,NE,3.5,-,N/A,,Clear,40,2012-12-06 14:53:00
8:53 AM,35.1,15.1,44,30.10,10.0,Calm,Calm,-,N/A,,Clear,0,2012-12-06 15:53:00
9:53 AM,45.0,19.0,36,30.04,10.0,Calm,Calm,-,N/A,,Clear,0,2012-12-06 16:53:00
10:53 AM,53.1,24.1,32,29.99,10.0,SW,9.2,-,N/A,,Clear,230,2012-12-06 17:53:00
11:53 AM,55.0,25.0,31,29.96,10.0,WSW,9.2,-,N/A,,Clear,240,2012-12-06 18:53:00
12:53 PM,57.0,25.0,29,29.88,10.0,SW,13.8,-,N/A,,Clear,220,2012-12-06 19:53:00
1:53 PM,57.9,26.1,30,29.86,10.0,WSW,12.7,20.7,N/A,,Clear,240,2012-12-06 20:53:00
2:53 PM,55.9,28.0,34,29.88,10.0,SW,11.5,19.6,N/A,,Clear,230,2012-12-06 21:53:00
3:53 PM,55.0,28.0,35,29.89,10.0,SW,11.5,-,N/A,,Clear,230,2012-12-06 22:53:00
4:53 PM,52.0,28.0,40,29.91,10.0,SW,8.1,-,N/A,,Overcast,230,2012-12-06 23:53:00
5:53 PM,46.0,26.1,46,29.99,10.0,Calm,Calm,-,N/A,,Mostly Cloudy,0,2012-12-07 00:53:00
6:53 PM,43.0,21.0,42,30.01,10.0,ENE,4.6,-,N/A,,Scattered Clouds,70,2012-12-07 01:53:00
7:53 PM,39.0,21.0,49,30.06,10.0,Calm,Calm,-,N/A,,Scattered Clouds,0,2012-12-07 02:53:00
8:53 PM,33.1,18.0,54,30.01,10.0,Calm,Calm,-,N/A,,Mostly Cloudy,0,2012-12-07 03:53:00
9:53 PM,33.1,19.9,59,29.94,10.0,Calm,Calm,-,N/A,,Clear,0,2012-12-07 04:53:00
10:53 PM,28.0,18.0,66,29.92,10.0,Calm,Calm,-,N/A,,Clear,0,2012-12-07 05:53:00
11:53 PM,27.0,16.0,63,29.92,10.0,Calm,Calm,-,N/A,,Clear,0,2012-12-07 06:53:00